ADDS METAR Data INFO
IDs: Format: Raw Decoded Include TAF

Data at: 0150 UTC 17 Oct 2017

KCWV 170135Z AUTO 02013G18KT 10SM OVC049 21/15 A3010 RMK AO2 T02110152
KCWV 170115Z AUTO 36013G18KT 10SM SCT040 BKN047 OVC055 22/16 A3009 RMK AO2 T02150161
KCWV 170055Z AUTO 36013G21KT 10SM SCT039 BKN045 OVC060 22/17 A3008 RMK AO2 T02210173
KCWV 170035Z AUTO 36009G24KT 10SM BKN022 BKN036 OVC060 23/18 A3006 RMK AO2 T02270179
KCWV 170015Z AUTO 35011G19KT 10SM BKN022 OVC028 24/19 A3004 RMK AO2 T02390193
KCWV 162355Z AUTO 35010G20KT 10SM SCT026 BKN036 OVC065 25/20 A3002 RMK AO2 T02510202 10303 20236
KCWV 162335Z AUTO 34007KT 10SM -RA BKN036 OVC044 26/21 A3000 RMK AO2 T02580208
KCWV 162315Z AUTO 36005KT 10SM BKN038 BKN044 OVC075 26/21 A2999 RMK AO2 T02620206
KCWV 162255Z AUTO 34003KT 10SM BKN040 OVC065 27/21 A2998 RMK AO2 LTG DSNT S T02650207
KCWV 162235Z AUTO 32003KT 10SM SCT044 BKN065 27/21 A2997 RMK AO2 T02710206
KCWV 162215Z AUTO 31004KT 10SM SCT036 28/21 A2996 RMK AO2 T02770210
KCWV 162155Z AUTO 29004KT 10SM SCT060 28/21 A2995 RMK AO2 T02810211
KCWV 162135Z AUTO 28005KT 10SM SCT047 SCT060 28/21 A2995 RMK AO2 T02840207
KCWV 162115Z AUTO 29007KT 10SM SCT047 BKN065 BKN075 29/22 A2995 RMK AO2 LTG DSNT SE T02860217
KCWV 162055Z AUTO 30005KT 10SM SCT037 SCT043 BKN065 28/22 A2995 RMK AO2 LTG DSNT SE T02780220
KCWV 162035Z AUTO 29005KT 10SM SCT043 SCT075 SCT085 28/23 A2995 RMK AO2 T02800225
KCWV 162015Z AUTO 26003KT 10SM SCT085 28/24 A2995 RMK AO2 T02810237
KCWV 161955Z AUTO 28004KT 10SM CLR 27/24 A2994 RMK AO2 LTG DSNT E AND S T02740242
KCWV 161935Z AUTO 00000KT 10SM SCT085 25/24 A2994 RMK AO2 LTG DSNT SW T02540243
KCWV 161915Z AUTO 25003KT 10SM SCT032 SCT040 OVC085 24/24 A2996 RMK AO2 LTG DSNT SE AND SW T02430235
KCWV 161855Z AUTO 19004KT 4SM +RA SCT031 BKN042 OVC075 24/23 A2997 RMK AO2 LTG DSNT NW T02390228
KCWV 161835Z AUTO 00000KT 10SM VCTS SCT036 SCT046 BKN060 24/22 A2997 RMK AO2 LTG DSNT W THRU NE T02430220
KCWV 161815Z AUTO 29011G20KT 10SM SCT035 SCT043 SCT110 28/21 A2997 RMK AO2 T02840208
KCWV 161755Z AUTO 25010KT 10SM SCT100 SCT120 30/21 A2997 RMK AO2 T02960213 10311 20231
KCWV 161735Z AUTO 27010KT 10SM SCT037 SCT100 SCT120 31/22 A2998 RMK AO2 T03100219
KCWV 161715Z AUTO 27005KT 10SM SCT031 SCT037 SCT046 31/22 A3000 RMK AO2 T03110218
KCWV 161655Z AUTO 27008KT 10SM SCT031 BKN036 BKN060 29/22 A3001 RMK AO2 T02940218
KCWV 161635Z AUTO 16003KT 10SM SCT027 SCT036 30/23 A3001 RMK AO2 T02980227
KCWV 161615Z AUTO 24006KT 10SM SCT027 SCT033 30/23 A3002 RMK AO2 T02970227
KCWV 161555Z AUTO 24004KT 10SM SCT022 SCT031 28/22 A3003 RMK AO2 T02820224
KCWV 161535Z AUTO 24004KT 10SM SCT019 SCT025 SCT100 29/23 A3003 RMK AO2 T02880231
KCWV 161515Z AUTO 25007KT 10SM SCT017 28/23 A3004 RMK AO2 T02780231
KCWV 161455Z AUTO 25004KT 10SM CLR 27/23 A3004 RMK AO2 T02730230
KCWV 161435Z AUTO 26008KT 10SM CLR 27/23 A3004 RMK AO2 T02700231
KCWV 161415Z AUTO 22005KT 10SM SCT010 26/23 A3004 RMK AO2 T02620230
KCWV 161355Z AUTO 23005KT 10SM SCT006 SCT010 26/23 A3004 RMK AO2 T02560230
KCWV 161335Z AUTO 25004KT 10SM OVC006 25/23 A3005 RMK AO2 T02450230
KCWV 161315Z AUTO 00000KT 10SM OVC004 24/23 A3004 RMK AO2 T02400229
KCWV 161255Z AUTO 00000KT 10SM OVC004 24/23 A3003 RMK AO2 T02380229
KCWV 161235Z AUTO 00000KT 7SM OVC004 23/23 A3003 RMK AO2 T02330227
KCWV 161215Z AUTO 00000KT 7SM OVC002 23/23 A3003 RMK AO2 T02310227
KCWV 161155Z AUTO 00000KT 7SM OVC002 23/23 A3003 RMK AO2 T02310227 10232 20207
KCWV 161135Z AUTO 00000KT 5SM BR OVC004 23/23 A3003 RMK AO2 T02320228
KCWV 161115Z AUTO 00000KT 7SM BKN002 OVC007 23/23 A3002 RMK AO2 T02320230
KCWV 161055Z AUTO 00000KT 5SM BR OVC002 23/23 A3002 RMK AO2 T02320230
KCWV 161035Z AUTO 00000KT 5SM BR OVC004 23/23 A3001 RMK AO2 T02320230
KCWV 161015Z AUTO 00000KT 7SM OVC004 23/23 A3001 RMK AO2 T02320230
KCWV 160955Z AUTO 00000KT 7SM OVC004 23/23 A3001 RMK AO2 T02320229
KCWV 160935Z AUTO 00000KT 7SM OVC002 23/23 A3001 RMK AO2 T02320230
KCWV 160915Z AUTO 00000KT 7SM OVC002 23/23 A3001 RMK AO2 T02320230
KCWV 160855Z AUTO 00000KT 3SM BR OVC002 23/23 A3000 RMK AO2 T02320230
KCWV 160835Z AUTO 25003KT 1 3/4SM BR OVC002 23/23 A3001 RMK AO2 T02320230
KCWV 160815Z AUTO 24003KT 1 3/4SM BR OVC002 23/23 A3001 RMK AO2 T02320230
KCWV 160755Z AUTO 00000KT 1SM BR OVC002 23/23 A3001 RMK AO2 T02310230
KCWV 160735Z AUTO 00000KT 1SM BR OVC002 23/23 A3002 RMK AO2 T02310230
KCWV 160715Z AUTO 25003KT 1 1/2SM BR OVC002 23/22 A3003 RMK AO2 T02250223
KCWV 160655Z AUTO 00000KT 4SM BR BKN002 21/21 A3002 RMK AO2 T02120210
KCWV 160635Z AUTO 00000KT 1 1/2SM BR VV007 21/21 A3003 RMK AO2 T02100207
KCWV 160615Z AUTO 00000KT 5SM BR CLR 21/21 A3003 RMK AO2 T02140211
KCWV 160555Z AUTO 00000KT 1 1/4SM BR VV007 21/21 A3003 RMK AO2 T02120210 10233 20208 403120178
KCWV 160535Z AUTO 00000KT 1 1/4SM BR VV007 22/21 A3003 RMK AO2 T02150212
KCWV 160515Z AUTO 00000KT 7SM CLR 22/22 A3004 RMK AO2 T02240220
KCWV 160455Z AUTO 00000KT 7SM CLR 22/22 A3004 RMK AO2 T02220219
KCWV 160435Z AUTO 00000KT 10SM CLR 21/21 A3004 RMK AO2 T02100206
KCWV 160415Z AUTO 00000KT 10SM CLR 21/20 A3005 RMK AO2 T02080203
KCWV 160355Z AUTO 00000KT 10SM CLR 21/21 A3005 RMK AO2 T02120206
KCWV 160335Z AUTO 00000KT 10SM CLR 21/21 A3006 RMK AO2 T02140207
KCWV 160315Z AUTO 00000KT 10SM CLR 21/21 A3007 RMK AO2 T02120205
KCWV 160255Z AUTO 00000KT 10SM CLR 21/20 A3007 RMK AO2 T02120204
KCWV 160235Z AUTO 00000KT 10SM CLR 22/21 A3008 RMK AO2 T02150208
KCWV 160215Z AUTO 00000KT 10SM CLR 22/21 A3008 RMK AO2 T02190212
KCWV 160155Z AUTO 00000KT 10SM CLR 22/21 A3007 RMK AO2 T02210209
KCWV 160135Z AUTO 00000KT 10SM CLR 22/21 A3007 RMK AO2 T02240209
KCWV 160115Z AUTO 00000KT 10SM CLR 23/21 A3006 RMK AO2 T02250209
KCWV 160055Z AUTO 00000KT 10SM CLR 23/21 A3006 RMK AO2 T02280210
KCWV 160035Z AUTO 00000KT 10SM CLR 23/22 A3005 RMK AO2 T02250216
KCWV 160015Z AUTO 00000KT 10SM CLR 23/22 A3005 RMK AO2 T02300220
KCWV 152355Z AUTO 00000KT 10SM CLR 23/22 A3005 RMK AO2 T02340221 10312 20234
KCWV 152335Z AUTO 00000KT 10SM CLR 24/22 A3005 RMK AO2 T02380223
KCWV 152315Z AUTO 00000KT 10SM CLR 25/22 A3005 RMK AO2 T02450221
KCWV 152255Z AUTO 00000KT 10SM CLR 25/22 A3005 RMK AO2 T02500223
KCWV 152235Z AUTO 00000KT 10SM CLR 26/22 A3004 RMK AO2 T02620223
KCWV 152215Z AUTO 35003KT 10SM CLR 30/19 A3004 RMK AO2 T02960194
KCWV 152155Z AUTO 00000KT 10SM CLR 30/19 A3004 RMK AO2 T03020190
KCWV 152135Z AUTO 00000KT 10SM CLR 31/19 A3004 RMK AO2 T03050192
KCWV 152115Z AUTO 00000KT 10SM CLR 31/19 A3005 RMK AO2 T03070193
KCWV 152055Z AUTO 35003KT 10SM CLR 31/20 A3005 RMK AO2 T03050195
KCWV 152035Z AUTO 00000KT 10SM CLR 31/20 A3006 RMK AO2 T03050195
KCWV 152015Z AUTO 00000KT 10SM CLR 30/19 A3007 RMK AO2 T03020192
KCWV 151955Z AUTO 26003KT 10SM CLR 30/20 A3007 RMK AO2 T03020197
KCWV 151935Z AUTO 00000KT 10SM CLR 31/20 A3008 RMK AO2 T03080197
KCWV 151915Z AUTO 00000KT 10SM CLR 30/20 A3009 RMK AO2 T02990196
KCWV 151855Z AUTO 29004KT 10SM CLR 31/20 A3009 RMK AO2 T03090202
KCWV 151835Z AUTO 11003KT 10SM CLR 31/20 A3010 RMK AO2 T03060203
KCWV 151815Z AUTO 00000KT 10SM CLR 29/21 A3012 RMK AO2 T02940208
KCWV 151755Z AUTO 00000KT 10SM CLR 29/21 A3013 RMK AO2 T02900206 10303 20197
KCWV 151735Z AUTO 00000KT 10SM CLR 30/21 A3014 RMK AO2 T03000208
KCWV 151715Z AUTO 00000KT 10SM CLR 30/21 A3015 RMK AO2 T02950214
KCWV 151655Z AUTO 05004KT 10SM SCT029 SCT037 30/22 A3015 RMK AO2 T02960215
KCWV 151635Z AUTO 05003KT 10SM SCT027 SCT032 28/22 A3017 RMK AO2 T02800216
KCWV 151615Z AUTO 00000KT 10SM CLR 28/22 A3017 RMK AO2 T02790216
KCWV 151555Z AUTO 00000KT 10SM CLR 28/21 A3017 RMK AO2 T02750213
KCWV 151535Z AUTO 00000KT 10SM CLR 28/22 A3018 RMK AO2 T02770221
KCWV 151515Z AUTO 04004KT 10SM SCT025 27/22 A3018 RMK AO2 T02690221
KCWV 151455Z AUTO 06003KT 10SM SCT025 26/22 A3019 RMK AO2 T02550221
KCWV 151435Z AUTO 00000KT 10SM CLR 24/22 A3019 RMK AO2 T02390216
KCWV 151415Z AUTO 00000KT 10SM SCT025 23/22 A3020 RMK AO2 T02340215
KCWV 151355Z AUTO 00000KT 10SM SCT003 BKN025 23/22 A3020 RMK AO2 T02300216